createdAt,value
2023-01-13T00:01:26.581Z,32.65
2023-01-13T00:03:53.547Z,44.40
2023-01-13T00:06:22.835Z,32.55
2023-01-13T00:08:51.659Z,29.40
2023-01-13T00:13:45.993Z,31.50
2023-01-13T00:16:15.750Z,36.33
2023-01-13T00:18:43.201Z,34.72
2023-01-13T00:21:21.646Z,33.17
2023-01-13T00:23:49.044Z,33.72
2023-01-13T00:26:19.199Z,36.72
2023-01-13T00:28:46.051Z,34.35
2023-01-13T00:31:18.510Z,35.45
2023-01-13T00:33:48.972Z,36.17
2023-01-13T00:36:16.994Z,24.30
2023-01-13T00:38:44.634Z,37.55
2023-01-13T00:41:13.876Z,38.40
2023-01-13T00:43:41.320Z,38.15
2023-01-13T00:46:10.011Z,35.53
2023-01-13T00:51:06.249Z,43.30
2023-01-13T00:53:40.836Z,32.88
2023-01-13T00:56:40.783Z,37.78
2023-01-13T00:59:12.710Z,37.38
2023-01-13T01:01:40.395Z,37.20
2023-01-13T01:04:07.719Z,46.27
2023-01-13T01:06:34.537Z,39.58
2023-01-13T01:09:01.406Z,44.00
2023-01-13T01:11:31.109Z,51.55
2023-01-13T01:14:01.181Z,43.08
2023-01-13T01:16:30.335Z,33.60
2023-01-13T01:18:57.907Z,38.00
2023-01-13T01:21:26.283Z,45.25
2023-01-13T01:23:53.671Z,38.25
2023-01-13T01:26:23.137Z,36.45
2023-01-13T01:28:50.060Z,33.55
2023-01-13T01:31:19.595Z,45.22
2023-01-13T01:33:47.589Z,52.17
2023-01-13T01:36:16.370Z,35.70
2023-01-13T01:41:19.393Z,33.72
2023-01-13T01:43:59.757Z,50.80
2023-01-13T01:46:32.137Z,56.25
2023-01-13T01:49:04.964Z,47.50
2023-01-13T01:51:49.921Z,36.53
2023-01-13T01:54:24.027Z,47.55
2023-01-13T01:56:51.572Z,35.03
2023-01-13T01:59:20.402Z,46.33
2023-01-13T02:01:48.445Z,44.47
2023-01-13T02:04:22.677Z,44.13
2023-01-13T02:06:50.279Z,42.25
2023-01-13T02:09:17.814Z,42.72
2023-01-13T02:12:03.231Z,37.53
2023-01-13T02:14:31.950Z,42.60
2023-01-13T02:20:05.304Z,42.00
2023-01-13T02:22:37.853Z,41.10
2023-01-13T02:25:59.740Z,32.17
2023-01-13T02:28:36.403Z,41.63
2023-01-13T02:31:27.264Z,33.45
2023-01-13T02:34:09.265Z,31.38
2023-01-13T02:36:47.655Z,48.35
2023-01-13T02:39:17.222Z,43.28
2023-01-13T02:42:21.189Z,44.20
2023-01-13T02:45:03.914Z,36.10
2023-01-13T02:47:34.112Z,40.90
2023-01-13T02:50:04.022Z,42.47
2023-01-13T02:52:38.099Z,35.88
2023-01-13T02:55:13.827Z,36.13
2023-01-13T02:57:42.010Z,53.80
2023-01-13T03:00:13.480Z,36.33
2023-01-13T03:02:40.221Z,43.25
2023-01-13T03:05:07.263Z,40.65
2023-01-13T03:07:44.114Z,41.53
2023-01-13T03:10:35.476Z,46.35
2023-01-13T03:13:29.343Z,46.80
2023-01-13T03:16:14.431Z,41.53
2023-01-13T03:19:06.016Z,41.30
2023-01-13T03:21:46.139Z,43.25
2023-01-13T03:24:28.032Z,42.00
2023-01-13T03:27:15.195Z,32.20
2023-01-13T03:29:46.465Z,37.50
2023-01-13T03:32:35.378Z,44.72
2023-01-13T03:35:09.936Z,34.28
2023-01-13T03:37:41.419Z,32.80
2023-01-13T03:40:20.540Z,37.55
2023-01-13T03:43:13.418Z,30.50
2023-01-13T03:45:42.388Z,38.95
2023-01-13T03:48:17.961Z,31.30
2023-01-13T03:50:49.622Z,24.00
2023-01-13T03:53:37.571Z,32.35
2023-01-13T03:56:26.812Z,37.28
2023-01-13T03:58:54.322Z,26.40
2023-01-13T04:01:35.159Z,36.95
2023-01-13T04:04:08.318Z,27.38
2023-01-13T04:07:09.915Z,27.13
2023-01-13T04:09:45.267Z,24.77
2023-01-13T04:12:52.360Z,26.67
2023-01-13T04:15:22.049Z,23.17
2023-01-13T04:17:49.483Z,39.90
2023-01-13T04:20:16.679Z,55.20
2023-01-13T04:22:45.956Z,74.43
2023-01-13T04:25:12.719Z,65.35
2023-01-13T04:27:39.402Z,85.07
2023-01-13T04:30:07.073Z,75.03
2023-01-13T04:32:33.792Z,73.70
2023-01-13T04:35:00.472Z,75.97
2023-01-13T04:37:27.323Z,68.68
2023-01-13T04:39:53.943Z,67.00
2023-01-13T04:42:20.584Z,57.97
2023-01-13T04:44:47.316Z,46.13
2023-01-13T04:47:15.009Z,39.47
2023-01-13T04:49:41.668Z,34.63
2023-01-13T04:52:08.414Z,26.15
2023-01-13T04:54:35.167Z,20.30
2023-01-13T04:57:01.951Z,22.98
2023-01-13T04:59:28.640Z,18.17
2023-01-13T05:01:55.612Z,18.45
2023-01-13T05:04:22.573Z,19.10
2023-01-13T05:06:49.691Z,15.60
2023-01-13T05:09:16.795Z,12.88
2023-01-13T05:12:02.326Z,19.58
2023-01-13T05:14:47.699Z,16.08
2023-01-13T05:17:19.305Z,14.30
2023-01-13T05:19:46.032Z,22.38
2023-01-13T05:22:31.607Z,19.17
2023-01-13T05:25:17.041Z,24.10
2023-01-13T05:27:43.669Z,17.35
2023-01-13T05:30:10.909Z,21.05
2023-01-13T05:32:37.655Z,16.38
2023-01-13T05:35:04.857Z,15.85
2023-01-13T05:37:31.544Z,18.02
2023-01-13T05:40:16.785Z,23.17
2023-01-13T05:43:02.603Z,20.90
2023-01-13T05:45:31.555Z,17.67
2023-01-13T05:47:58.255Z,20.52
2023-01-13T05:50:25.413Z,15.60
2023-01-13T05:52:52.142Z,13.85
2023-01-13T05:55:18.845Z,17.95
2023-01-13T05:57:45.513Z,15.93
2023-01-13T06:00:12.622Z,16.63
2023-01-13T06:02:39.384Z,15.77
2023-01-13T06:05:06.321Z,24.90
2023-01-13T06:07:33.004Z,20.63
2023-01-13T06:09:59.714Z,20.00
2023-01-13T06:12:26.387Z,14.80
2023-01-13T06:14:53.047Z,19.05
2023-01-13T06:17:19.725Z,22.98
2023-01-13T06:19:46.442Z,19.15
2023-01-13T06:22:21.727Z,18.70
2023-01-13T06:24:50.415Z,30.45
2023-01-13T06:27:17.858Z,16.83
2023-01-13T06:29:44.663Z,25.23
2023-01-13T06:32:32.414Z,23.20
2023-01-13T06:35:05.703Z,22.80
2023-01-13T06:37:34.516Z,18.13
2023-01-13T06:42:51.238Z,21.15
2023-01-13T06:45:18.461Z,27.00
2023-01-13T06:47:45.295Z,18.63
2023-01-13T06:50:12.396Z,18.75
2023-01-13T06:52:39.043Z,18.67
2023-01-13T06:55:09.265Z,17.92
2023-01-13T06:57:46.216Z,18.33
2023-01-13T07:00:13.604Z,12.23
2023-01-13T07:02:41.520Z,18.60
2023-01-13T07:05:08.640Z,17.98
2023-01-13T07:07:35.426Z,17.25
2023-01-13T07:10:02.207Z,21.48
2023-01-13T07:12:29.017Z,24.08
2023-01-13T07:15:14.204Z,20.17
2023-01-13T07:17:40.962Z,23.35
2023-01-13T07:20:08.363Z,26.13
2023-01-13T07:22:35.062Z,20.77
2023-01-13T07:25:01.695Z,19.40
2023-01-13T07:27:28.425Z,19.65
2023-01-13T07:29:55.263Z,23.95
2023-01-13T07:32:21.931Z,25.75
2023-01-13T07:34:48.734Z,19.95
2023-01-13T07:37:15.451Z,24.92
2023-01-13T07:39:42.310Z,19.23
2023-01-13T07:42:28.160Z,22.33
2023-01-13T07:44:54.889Z,25.05
2023-01-13T07:47:23.341Z,20.58
2023-01-13T07:49:50.097Z,25.70
2023-01-13T07:52:16.727Z,21.52
2023-01-13T07:54:44.405Z,21.70
2023-01-13T07:57:11.159Z,16.48
2023-01-13T07:59:37.959Z,27.40
2023-01-13T08:02:04.927Z,23.92
2023-01-13T08:04:31.786Z,31.05
2023-01-13T08:06:58.402Z,24.98
2023-01-13T08:09:25.134Z,22.45
2023-01-13T08:12:14.475Z,28.90
2023-01-13T08:14:41.501Z,17.05
2023-01-13T08:17:09.468Z,25.50
2023-01-13T08:19:36.308Z,20.25
2023-01-13T08:22:03.094Z,24.33
2023-01-13T08:24:31.157Z,15.90
2023-01-13T08:26:57.835Z,25.70
2023-01-13T08:29:24.579Z,28.45
2023-01-13T08:31:51.356Z,24.48
2023-01-13T08:34:17.999Z,19.77
2023-01-13T08:36:44.740Z,23.67
2023-01-13T08:39:11.504Z,22.00
2023-01-13T08:41:56.802Z,15.23
2023-01-13T08:44:28.698Z,27.35
2023-01-13T08:46:56.387Z,24.50
2023-01-13T08:49:24.452Z,30.48
2023-01-13T08:51:53.852Z,28.90
2023-01-13T08:54:20.958Z,27.30
2023-01-13T08:56:48.183Z,27.67
2023-01-13T08:59:17.900Z,19.00
2023-01-13T09:01:45.977Z,17.33
2023-01-13T09:04:24.400Z,29.10
2023-01-13T09:06:51.951Z,24.58
2023-01-13T09:09:18.773Z,23.15
2023-01-13T09:12:07.590Z,27.45
2023-01-13T09:14:36.333Z,26.98
2023-01-13T09:19:30.032Z,19.17
2023-01-13T09:21:57.433Z,25.10
2023-01-13T09:24:24.720Z,26.50
2023-01-13T09:26:51.500Z,23.35
2023-01-13T09:29:18.515Z,20.70
2023-01-13T09:31:45.440Z,27.48
2023-01-13T09:34:36.418Z,21.50
2023-01-13T09:37:04.455Z,22.63
2023-01-13T09:39:32.847Z,21.17
2023-01-13T09:42:51.086Z,22.70
2023-01-13T09:45:17.855Z,18.77
2023-01-13T09:48:01.247Z,22.92
2023-01-13T09:50:39.013Z,23.65
2023-01-13T09:53:12.535Z,30.10
2023-01-13T09:55:39.250Z,24.20
2023-01-13T09:58:18.451Z,25.77
2023-01-13T10:00:47.582Z,30.95
2023-01-13T10:03:29.281Z,21.27
2023-01-13T10:06:04.604Z,24.85
2023-01-13T10:08:38.128Z,23.30
2023-01-13T10:11:36.176Z,18.40
2023-01-13T10:14:08.972Z,28.15
2023-01-13T10:16:46.588Z,24.63
2023-01-13T10:19:23.382Z,29.83
2023-01-13T10:21:53.390Z,24.77
2023-01-13T10:24:20.490Z,29.83
2023-01-13T10:27:00.151Z,29.67
2023-01-13T10:29:28.792Z,30.35
2023-01-13T10:31:56.739Z,28.05
2023-01-13T10:34:25.353Z,20.90
2023-01-13T10:37:15.261Z,21.15
2023-01-13T10:39:44.153Z,21.83
2023-01-13T10:42:18.726Z,25.50
2023-01-13T10:44:48.255Z,27.48
2023-01-13T10:47:42.865Z,27.38
2023-01-13T10:50:13.036Z,20.73
2023-01-13T10:52:56.950Z,31.88
2023-01-13T10:55:30.692Z,16.02
2023-01-13T10:57:57.892Z,21.58
2023-01-13T11:00:33.297Z,25.80
2023-01-13T11:03:32.954Z,20.08
2023-01-13T11:06:00.708Z,29.70
2023-01-13T11:08:47.179Z,18.95
2023-01-13T11:11:32.895Z,21.35
2023-01-13T11:14:24.145Z,20.70
2023-01-13T11:16:55.090Z,16.15
2023-01-13T11:19:24.553Z,20.05
2023-01-13T11:22:09.372Z,16.40
2023-01-13T11:24:51.176Z,15.13
2023-01-13T11:27:30.189Z,20.42
2023-01-13T11:30:14.899Z,17.50
2023-01-13T11:33:01.315Z,16.02
2023-01-13T11:35:31.419Z,17.05
2023-01-13T11:38:04.507Z,14.65
2023-01-13T11:40:42.493Z,18.70
2023-01-13T11:43:42.637Z,12.80
2023-01-13T11:46:10.972Z,15.90
2023-01-13T11:48:42.268Z,16.42
2023-01-13T11:51:14.922Z,17.95
2023-01-13T11:54:15.257Z,14.48
2023-01-13T11:56:54.368Z,17.42
2023-01-13T11:59:39.089Z,15.27
2023-01-13T12:02:20.567Z,20.92
2023-01-13T12:04:55.962Z,14.68
2023-01-13T12:07:38.131Z,15.20
2023-01-13T12:10:47.038Z,15.48
2023-01-13T12:13:51.406Z,10.73
2023-01-13T12:16:25.806Z,13.25
2023-01-13T12:19:07.791Z,15.68
2023-01-13T12:21:47.448Z,16.83
2023-01-13T12:24:21.454Z,14.18
2023-01-13T12:26:55.666Z,16.65
2023-01-13T12:29:37.402Z,18.17
2023-01-13T12:32:07.863Z,15.30
2023-01-13T12:35:05.184Z,18.42
2023-01-13T12:37:43.020Z,16.52
2023-01-13T12:40:20.306Z,14.03
2023-01-13T12:43:25.147Z,16.27
2023-01-13T12:45:51.861Z,17.92
2023-01-13T12:49:00.661Z,10.40
2023-01-13T12:51:33.130Z,17.33
2023-01-13T12:54:01.953Z,16.13
2023-01-13T12:56:45.257Z,12.82
2023-01-13T12:59:21.323Z,14.57
2023-01-13T13:02:08.258Z,15.32
2023-01-13T13:04:52.261Z,16.02
2023-01-13T13:07:30.848Z,14.68
2023-01-13T13:10:05.819Z,16.58
2023-01-13T13:13:11.564Z,12.27
2023-01-13T13:15:38.775Z,11.10
2023-01-13T13:18:06.214Z,12.77
2023-01-13T13:20:58.752Z,12.85
2023-01-13T13:23:44.154Z,12.77
2023-01-13T13:26:23.952Z,12.30
2023-01-13T13:29:22.396Z,10.95
2023-01-13T13:32:18.456Z,13.52
2023-01-13T13:34:59.474Z,17.00
2023-01-13T13:38:03.842Z,17.08
2023-01-13T13:40:52.500Z,10.20
2023-01-13T13:46:47.264Z,12.07
2023-01-13T13:49:16.248Z,14.48
2023-01-13T13:52:12.689Z,10.18
2023-01-13T13:54:42.704Z,10.43
2023-01-13T13:57:22.642Z,10.07
2023-01-13T13:59:55.866Z,11.40
2023-01-13T14:02:37.043Z,14.13
2023-01-13T14:05:16.688Z,12.15
2023-01-13T14:07:46.673Z,10.90
2023-01-13T14:10:22.863Z,10.85
2023-01-13T14:12:49.668Z,16.33
2023-01-13T14:15:26.002Z,16.88
2023-01-13T14:17:53.143Z,9.43
2023-01-13T14:20:19.916Z,12.20
2023-01-13T14:22:51.951Z,14.10
2023-01-13T14:25:39.633Z,9.77
2023-01-13T14:28:26.610Z,13.57
2023-01-13T14:30:54.580Z,12.02
2023-01-13T14:33:26.637Z,11.02
2023-01-13T14:36:16.389Z,10.73
2023-01-13T14:38:45.978Z,14.18
2023-01-13T14:41:25.799Z,13.10
2023-01-13T14:43:56.885Z,12.77
2023-01-13T14:46:25.410Z,14.07
2023-01-13T14:51:25.302Z,13.82
2023-01-13T14:53:52.432Z,15.77
2023-01-13T14:56:43.235Z,21.38
2023-01-13T14:59:35.085Z,13.93
2023-01-13T15:02:22.840Z,12.45
2023-01-13T15:04:53.834Z,11.05
2023-01-13T15:07:26.559Z,17.25
2023-01-13T15:10:02.399Z,23.20
2023-01-13T15:12:40.630Z,13.93
2023-01-13T15:15:24.664Z,12.75
2023-01-13T15:17:55.097Z,19.90
2023-01-13T15:20:23.693Z,12.98
2023-01-13T15:22:51.963Z,11.00
2023-01-13T15:25:19.034Z,14.93
2023-01-13T15:27:51.696Z,13.82
2023-01-13T15:30:22.202Z,11.38
2023-01-13T15:32:48.880Z,13.27
2023-01-13T15:35:17.419Z,13.10
2023-01-13T15:37:45.330Z,11.30
2023-01-13T15:40:23.132Z,10.67
2023-01-13T15:43:08.610Z,15.27
2023-01-13T15:45:55.778Z,10.70
2023-01-13T15:48:24.203Z,9.95
2023-01-13T15:50:51.217Z,14.10
2023-01-13T15:53:18.279Z,9.80
2023-01-13T15:55:50.102Z,11.85
2023-01-13T15:58:20.434Z,11.15
2023-01-13T16:00:47.284Z,15.80
2023-01-13T16:03:16.799Z,12.32
2023-01-13T16:05:44.961Z,12.43
2023-01-13T16:08:19.665Z,10.57
2023-01-13T16:10:47.171Z,9.48
2023-01-13T16:13:14.731Z,14.18
2023-01-13T16:15:49.131Z,11.18
2023-01-13T16:18:26.356Z,13.45
2023-01-13T16:20:55.083Z,13.93
2023-01-13T16:25:50.019Z,15.48
2023-01-13T16:28:22.498Z,10.15
2023-01-13T16:30:51.062Z,13.55
2023-01-13T16:33:17.775Z,13.02
2023-01-13T16:36:10.957Z,15.52
2023-01-13T16:38:31.317Z,11.98
2023-01-13T16:40:58.349Z,8.02
2023-01-13T16:43:26.730Z,11.70
2023-01-13T16:45:53.432Z,12.45
2023-01-13T16:48:22.676Z,11.38
2023-01-13T16:50:49.551Z,14.20
2023-01-13T16:53:16.562Z,15.25
2023-01-13T16:55:43.388Z,13.48
2023-01-13T16:58:19.929Z,9.63
2023-01-13T17:00:47.423Z,17.25
2023-01-13T17:03:15.160Z,14.32
2023-01-13T17:05:44.372Z,11.95
2023-01-13T17:08:17.659Z,14.20
2023-01-13T17:10:45.848Z,12.40
2023-01-13T17:13:16.787Z,11.48
2023-01-13T17:15:45.093Z,7.70
2023-01-13T17:18:13.312Z,10.82
2023-01-13T17:20:40.489Z,5.68
2023-01-13T17:23:07.230Z,5.90
2023-01-13T17:25:33.880Z,7.47
2023-01-13T17:28:00.569Z,6.63
2023-01-13T17:30:27.269Z,3.95
2023-01-13T17:32:53.930Z,3.85
2023-01-13T17:35:24.639Z,3.70
2023-01-13T17:37:52.476Z,3.90
2023-01-13T17:40:19.385Z,1.40
2023-01-13T17:42:46.091Z,4.05
2023-01-13T17:45:12.863Z,2.63
2023-01-13T17:47:39.516Z,2.35
2023-01-13T17:50:06.572Z,2.50
2023-01-13T17:52:35.078Z,4.53
2023-01-13T17:55:01.784Z,5.85
2023-01-13T17:57:28.423Z,6.72
2023-01-13T17:59:55.183Z,19.83
2023-01-13T18:02:22.043Z,5.30
2023-01-13T18:04:48.871Z,6.55
2023-01-13T18:07:15.589Z,9.02
2023-01-13T18:09:42.574Z,8.45
2023-01-13T18:12:09.386Z,6.88
2023-01-13T18:14:36.234Z,9.60
2023-01-13T18:17:03.061Z,10.13
2023-01-13T18:19:48.486Z,10.30
2023-01-13T18:22:33.719Z,10.35
2023-01-13T18:25:19.997Z,10.48
2023-01-13T18:27:47.943Z,13.93
2023-01-13T18:30:15.053Z,6.15
2023-01-13T18:32:42.050Z,12.65
2023-01-13T18:35:10.305Z,10.73
2023-01-13T18:37:40.042Z,15.00
2023-01-13T18:40:09.437Z,9.13
2023-01-13T18:42:53.580Z,10.88
2023-01-13T18:45:29.081Z,8.10
2023-01-13T18:47:57.921Z,9.77
2023-01-13T18:52:52.525Z,6.18
2023-01-13T18:55:19.471Z,10.40
2023-01-13T18:57:46.486Z,10.02
2023-01-13T19:00:17.142Z,11.20
2023-01-13T19:02:44.941Z,10.27
2023-01-13T19:05:11.680Z,12.45
2023-01-13T19:07:40.559Z,6.85
2023-01-13T19:10:09.711Z,10.40
2023-01-13T19:12:36.664Z,7.82
2023-01-13T19:15:03.797Z,8.50
2023-01-13T19:17:34.704Z,6.95
2023-01-13T19:20:02.355Z,14.73
2023-01-13T19:22:34.997Z,11.70
2023-01-13T19:25:03.019Z,12.15
2023-01-13T19:27:31.517Z,7.68
2023-01-13T19:30:00.342Z,16.90
2023-01-13T19:32:28.368Z,10.13
2023-01-13T19:34:59.235Z,10.35
2023-01-13T19:37:30.136Z,10.07
2023-01-13T19:39:59.113Z,15.88
2023-01-13T19:42:44.532Z,12.48
2023-01-13T19:45:27.769Z,12.35
2023-01-13T19:47:55.877Z,10.73
2023-01-13T19:50:22.951Z,11.82
2023-01-13T19:52:49.733Z,17.85
2023-01-13T19:55:16.676Z,14.40
2023-01-13T19:57:43.522Z,12.63
2023-01-13T20:00:12.225Z,13.40
2023-01-13T20:02:44.761Z,16.25
2023-01-13T20:05:12.777Z,7.10
2023-01-13T20:07:39.662Z,9.75
2023-01-13T20:10:07.144Z,17.65
2023-01-13T20:12:33.805Z,15.82
2023-01-13T20:15:01.482Z,14.20
2023-01-13T20:17:29.684Z,8.60
2023-01-13T20:19:58.971Z,6.78
2023-01-13T20:22:25.696Z,22.67
2023-01-13T20:24:55.209Z,8.82
2023-01-13T20:27:23.994Z,14.13
2023-01-13T20:32:17.672Z,10.23
2023-01-13T20:34:44.479Z,16.13
2023-01-13T20:37:11.137Z,7.88
2023-01-13T20:39:37.926Z,8.40
2023-01-13T20:42:23.087Z,7.47
2023-01-13T20:44:49.913Z,9.60
2023-01-13T20:47:16.759Z,8.77
2023-01-13T20:49:43.709Z,8.68
2023-01-13T20:52:10.693Z,10.52
2023-01-13T20:54:40.429Z,16.08
2023-01-13T20:57:09.800Z,7.82
2023-01-13T20:59:37.668Z,9.05
2023-01-13T21:02:05.957Z,9.50
2023-01-13T21:04:32.940Z,14.75
2023-01-13T21:06:59.674Z,12.40
2023-01-13T21:09:29.444Z,11.82
2023-01-13T21:12:14.792Z,15.30
2023-01-13T21:15:00.426Z,11.90
2023-01-13T21:17:45.762Z,17.30
2023-01-13T21:20:14.406Z,9.38
2023-01-13T21:22:48.274Z,12.43
2023-01-13T21:25:16.480Z,14.00
2023-01-13T21:27:44.073Z,15.15
2023-01-13T21:30:14.851Z,17.95
2023-01-13T21:32:43.160Z,13.70
2023-01-13T21:35:10.302Z,15.63
2023-01-13T21:37:38.165Z,13.40
2023-01-13T21:40:06.912Z,11.77
2023-01-13T21:45:37.445Z,12.55
2023-01-13T21:48:05.437Z,12.50
2023-01-13T21:50:32.172Z,14.63
2023-01-13T21:52:59.635Z,12.48
2023-01-13T21:55:29.706Z,12.98
2023-01-13T21:58:07.130Z,10.73
2023-01-13T22:00:34.159Z,13.60
2023-01-13T22:03:04.267Z,12.88
2023-01-13T22:05:31.360Z,19.00
2023-01-13T22:07:58.333Z,15.73
2023-01-13T22:10:30.071Z,12.65
2023-01-13T22:13:00.140Z,12.90
2023-01-13T22:15:28.282Z,12.45
2023-01-13T22:17:56.006Z,14.68
2023-01-13T22:20:22.809Z,14.18
2023-01-13T22:22:50.119Z,7.68
2023-01-13T22:25:19.959Z,12.93
2023-01-13T22:27:48.281Z,12.13
2023-01-13T22:30:21.792Z,14.82
2023-01-13T22:32:48.692Z,12.02
2023-01-13T22:35:16.261Z,14.30
2023-01-13T22:37:43.163Z,11.60
2023-01-13T22:40:12.262Z,8.75
2023-01-13T22:42:40.947Z,12.93
2023-01-13T22:45:11.046Z,13.05
2023-01-13T22:47:38.016Z,11.05
2023-01-13T22:50:06.139Z,14.15
2023-01-13T22:52:34.187Z,19.05
2023-01-13T22:55:00.956Z,18.70
2023-01-13T22:57:36.331Z,11.18
2023-01-13T23:00:11.754Z,12.88
2023-01-13T23:02:38.922Z,15.55
2023-01-13T23:05:05.968Z,20.60
2023-01-13T23:07:32.619Z,13.65
2023-01-13T23:09:59.870Z,13.10
2023-01-13T23:12:26.712Z,10.40
2023-01-13T23:14:54.507Z,18.13
2023-01-13T23:17:21.208Z,10.38
2023-01-13T23:19:47.965Z,22.73
2023-01-13T23:22:15.575Z,15.07
2023-01-13T23:24:42.265Z,12.63
2023-01-13T23:27:10.028Z,13.20
2023-01-13T23:29:36.783Z,19.25
2023-01-13T23:32:03.817Z,17.33
2023-01-13T23:34:30.582Z,13.60
2023-01-13T23:36:57.294Z,14.23
2023-01-13T23:39:24.661Z,14.43
2023-01-13T23:41:51.616Z,10.38
2023-01-13T23:44:18.410Z,16.67
2023-01-13T23:46:45.084Z,10.52
2023-01-13T23:49:11.843Z,12.65
2023-01-13T23:51:38.755Z,20.02
2023-01-13T23:54:05.559Z,15.50
2023-01-13T23:56:32.902Z,14.60
2023-01-13T23:58:59.822Z,17.23
